Time;durP1;ratioP1;P1;durP2;ratioP2;P2;SDS_P1;SDS_P2;PMS_P1;PMS_P2;Temp;Humidity;BMP_temperature;BMP_pressure;BME280_temperature;BME280_humidity;BME280_pressure;Samples;Min_cycle;Max_cycle;Signal;HPM_P1;HPM_P2
2023/03/19 00:00:07;;;;;;;8.50;5.27;;;5.90;98.70;5.70;100379.00;;;;4893484;28;108475;-63
2023/03/19 00:02:33;;;;;;;4.53;4.10;;;5.80;98.90;5.70;100377.00;;;;4897391;28;88573;-64
2023/03/19 00:04:59;;;;;;;9.00;5.57;;;5.80;99.20;5.70;100371.00;;;;4896688;28;89727;-64
2023/03/19 00:07:25;;;;;;;5.10;4.40;;;5.80;99.50;5.70;100377.00;;;;4894609;28;88382;-64
2023/03/19 00:09:51;;;;;;;10.17;5.40;;;5.80;99.80;5.60;100366.00;;;;4893888;28;109510;-63
2023/03/19 00:12:16;;;;;;;5.80;4.63;;;5.80;99.90;5.60;100374.00;;;;4897026;28;88677;-64
2023/03/19 00:14:42;;;;;;;8.40;4.83;;;6.30;99.90;5.60;100366.00;;;;4894554;28;117170;-63
2023/03/19 00:17:08;;;;;;;5.67;4.70;;;5.80;99.90;5.60;100371.00;;;;4891172;28;109286;-63
2023/03/19 00:19:33;;;;;;;7.67;5.00;;;5.80;99.90;5.60;100380.00;;;;4892249;28;87816;-63
2023/03/19 00:21:59;;;;;;;5.50;4.27;;;5.80;99.90;5.60;100368.00;;;;4894380;28;118367;-63
2023/03/19 00:24:25;;;;;;;7.43;4.30;;;5.70;99.90;5.60;100377.00;;;;4893748;28;116633;-64
2023/03/19 00:26:51;;;;;;;5.63;4.40;;;5.70;99.90;5.60;100375.00;;;;4895902;28;109028;-64
2023/03/19 00:29:16;;;;;;;10.83;4.73;;;5.80;99.90;5.60;100385.00;;;;4893254;28;87834;-64
2023/03/19 00:31:42;;;;;;;7.67;5.07;;;5.70;99.90;5.60;100376.00;;;;4895850;28;108073;-63
2023/03/19 00:34:09;;;;;;;5.67;4.97;;;5.70;99.90;5.50;100372.00;;;;4893365;28;115550;-63
2023/03/19 00:36:35;;;;;;;5.20;4.70;;;5.70;99.90;5.50;100379.00;;;;4897021;28;88133;-63
2023/03/19 00:39:02;;;;;;;9.17;5.90;;;5.70;99.90;5.40;100384.00;;;;4895945;28;88125;-64
2023/03/19 00:41:29;;;;;;;6.43;4.30;;;5.60;99.90;5.40;100391.00;;;;4893626;28;89132;-64
2023/03/19 00:43:56;;;;;;;13.23;6.30;;;5.60;99.90;5.40;100387.00;;;;4893057;28;117888;-65
2023/03/19 00:46:23;;;;;;;5.87;4.57;;;5.80;99.90;5.40;100381.00;;;;4896149;28;87790;-65
2023/03/19 00:48:52;;;;;;;9.50;4.73;;;5.50;99.90;5.30;100379.00;;;;4895236;28;87951;-64
2023/03/19 00:51:18;;;;;;;8.27;5.00;;;5.90;99.90;5.30;100376.00;;;;4895128;28;89258;-64
2023/03/19 00:53:44;;;;;;;8.23;4.23;;;5.50;99.90;5.30;100377.00;;;;4895523;28;117219;-63
2023/03/19 00:56:13;;;;;;;9.63;4.87;;;5.50;99.90;5.30;100371.00;;;;4895903;28;87801;-63
2023/03/19 00:58:40;;;;;;;11.93;5.90;;;5.50;99.90;5.30;100374.00;;;;4898187;28;86966;-63
2023/03/19 01:01:07;;;;;;;7.70;4.33;;;5.50;99.90;5.30;100376.00;;;;4892481;28;88914;-64
2023/03/19 01:03:34;;;;;;;6.30;4.47;;;6.00;99.90;5.30;100375.00;;;;4897204;28;88941;-64
2023/03/19 01:06:00;;;;;;;9.80;4.77;;;5.50;99.90;5.30;100375.00;;;;4894066;28;89024;-63
2023/03/19 01:08:26;;;;;;;5.20;4.43;;;6.00;99.90;5.30;100375.00;;;;4894456;28;90854;-63
2023/03/19 01:10:52;;;;;;;5.73;4.63;;;5.50;99.90;5.30;100372.00;;;;4896742;28;88595;-63
2023/03/19 01:13:17;;;;;;;6.93;4.90;;;5.50;99.90;5.30;100373.00;;;;4897017;28;118232;-63
2023/03/19 01:15:43;;;;;;;6.27;5.33;;;5.50;99.90;5.30;100376.00;;;;4891887;28;110263;-65
2023/03/19 01:18:11;;;;;;;10.30;6.07;;;5.40;99.90;5.30;100375.00;;;;4894060;28;109025;-65
2023/03/19 01:20:40;;;;;;;9.43;4.10;;;5.40;99.90;5.30;100375.00;;;;4897881;28;88975;-65
2023/03/19 01:23:06;;;;;;;6.83;5.07;;;5.50;99.90;5.20;100378.00;;;;4896912;28;87810;-65
2023/03/19 01:25:33;;;;;;;5.27;4.53;;;5.40;99.90;5.30;100386.00;;;;4895380;28;108776;-65
2023/03/19 01:27:59;;;;;;;6.73;4.77;;;5.50;99.90;5.20;100383.00;;;;4896410;28;97665;-63
2023/03/19 01:30:24;;;;;;;9.43;6.43;;;5.40;99.90;5.30;100378.00;;;;4896566;28;118676;-63
2023/03/19 01:32:50;;;;;;;12.33;5.67;;;5.40;99.90;5.20;100386.00;;;;4893488;28;111792;-65
2023/03/19 01:35:16;;;;;;;6.63;4.73;;;5.40;99.90;5.20;100383.00;;;;4890390;28;110148;-63
2023/03/19 01:37:42;;;;;;;9.77;5.27;;;5.40;99.90;5.20;100378.00;;;;4896385;28;99890;-64
2023/03/19 01:40:12;;;;;;;9.67;4.80;;;5.40;99.90;5.10;100380.00;;;;4895923;28;118615;-63
2023/03/19 01:42:55;;;;;;;8.77;4.40;;;5.30;99.90;5.10;100378.00;;;;4898074;28;88313;-63
2023/03/19 01:45:54;;;;;;;12.70;5.80;;;5.40;99.90;5.10;100377.00;;;;4898330;28;87833;-63
2023/03/19 01:48:42;;;;;;;5.53;4.33;;;5.30;99.90;5.10;100377.00;;;;4896073;28;88008;-64
2023/03/19 01:51:13;;;;;;;12.47;4.77;;;5.30;99.90;5.20;100371.00;;;;4895924;28;88090;-64
2023/03/19 01:53:44;;;;;;;7.77;4.70;;;5.30;99.90;5.20;100376.00;;;;4892686;28;88517;-65
2023/03/19 01:56:15;;;;;;;5.67;4.43;;;5.30;99.90;5.20;100376.00;;;;4895530;28;90000;-64
2023/03/19 01:58:45;;;;;;;9.17;5.67;;;5.40;99.90;5.20;100368.00;;;;4898694;28;87808;-64
2023/03/19 02:01:11;;;;;;;7.67;5.07;;;5.40;99.90;5.30;100383.00;;;;4897844;28;88605;-64
2023/03/19 02:03:38;;;;;;;7.97;5.63;;;5.30;99.90;5.30;100369.00;;;;4897951;28;112848;-63
2023/03/19 02:06:04;;;;;;;6.70;5.07;;;5.40;99.90;5.30;100367.00;;;;4897984;28;88022;-64
2023/03/19 02:08:31;;;;;;;9.27;5.90;;;5.40;99.90;5.30;100364.00;;;;4893694;28;101908;-64
2023/03/19 02:10:59;;;;;;;6.97;4.87;;;5.40;99.90;5.20;100364.00;;;;4895595;28;98118;-63
2023/03/19 02:13:26;;;;;;;7.03;5.07;;;5.90;99.90;5.20;100360.00;;;;4896216;28;87389;-63
2023/03/19 02:15:53;;;;;;;7.53;5.37;;;5.40;99.90;5.20;100368.00;;;;4899672;28;87771;-64
2023/03/19 02:18:20;;;;;;;7.93;5.90;;;5.30;99.90;5.20;100353.00;;;;4895007;28;95923;-63
2023/03/19 02:20:59;;;;;;;7.57;5.60;;;5.40;99.90;5.20;100356.00;;;;4895044;28;90377;-64
2023/03/19 02:23:34;;;;;;;9.23;5.07;;;5.40;99.90;5.20;100348.00;;;;4898711;28;88065;-64
2023/03/19 02:26:13;;;;;;;7.07;5.50;;;5.30;99.90;5.20;100347.00;;;;4897960;28;87576;-64
2023/03/19 02:28:43;;;;;;;9.53;6.23;;;5.40;99.90;5.30;100347.00;;;;4898328;28;99474;-65
2023/03/19 02:31:10;;;;;;;7.40;4.47;;;5.40;99.90;5.30;100345.00;;;;4894833;28;87893;-64
2023/03/19 02:33:36;;;;;;;7.33;5.03;;;6.00;99.90;5.40;100338.00;;;;4894800;28;88484;-64
2023/03/19 02:36:06;;;;;;;4.73;3.80;;;5.50;99.90;5.40;100347.00;;;;4897713;28;108943;-64
2023/03/19 02:38:33;;;;;;;5.27;4.73;;;5.60;99.90;5.50;100346.00;;;;4896977;28;87216;-64
2023/03/19 02:41:03;;;;;;;7.23;4.17;;;5.50;99.90;5.50;100349.00;;;;4897615;28;88146;-63
2023/03/19 02:43:32;;;;;;;7.27;5.07;;;5.60;99.90;5.60;100357.00;;;;4897556;28;88193;-64
2023/03/19 02:45:58;;;;;;;5.37;4.43;;;5.70;99.90;5.60;100365.00;;;;4898549;28;88641;-64
2023/03/19 02:48:24;;;;;;;7.37;4.73;;;5.70;99.90;5.70;100363.00;;;;4897602;28;100827;-64
2023/03/19 02:50:50;;;;;;;6.33;3.80;;;5.70;99.90;5.70;100371.00;;;;4897218;28;88881;-63
2023/03/19 02:53:15;;;;;;;5.27;3.27;;;5.80;99.90;5.70;100363.00;;;;4896837;28;87935;-64
2023/03/19 02:55:41;;;;;;;10.17;5.03;;;5.80;99.90;5.80;100369.00;;;;4897639;28;93430;-64
2023/03/19 02:58:07;;;;;;;6.10;4.67;;;5.90;99.90;5.80;100368.00;;;;4899312;28;88164;-63
2023/03/19 03:00:36;;;;;;;6.53;4.83;;;6.00;99.90;5.90;100371.00;;;;4897773;28;117345;-64
2023/03/19 03:03:05;;;;;;;8.87;4.67;;;6.40;99.90;5.90;100360.00;;;;4897040;28;88283;-64
2023/03/19 03:05:31;;;;;;;7.10;4.87;;;6.00;99.90;5.90;100352.00;;;;4891935;28;88502;-64
2023/03/19 03:07:57;;;;;;;5.57;4.70;;;6.10;99.90;6.00;100350.00;;;;4899102;28;94398;-63
2023/03/19 03:10:23;;;;;;;4.83;4.23;;;6.50;99.90;6.00;100365.00;;;;4896377;28;89979;-64
2023/03/19 03:12:49;;;;;;;6.70;4.27;;;6.50;99.90;6.00;100370.00;;;;4897327;28;89520;-64
2023/03/19 03:15:14;;;;;;;4.90;4.37;;;6.10;99.90;6.10;100375.00;;;;4898141;28;88974;-63
2023/03/19 03:17:44;;;;;;;6.53;4.80;;;6.20;99.90;6.10;100364.00;;;;4898336;28;87821;-63
2023/03/19 03:20:12;;;;;;;5.37;4.33;;;6.30;99.90;6.10;100368.00;;;;4896650;28;89054;-63
2023/03/19 03:22:38;;;;;;;8.30;5.20;;;6.20;99.90;6.10;100400.00;;;;4896096;28;88372;-64
2023/03/19 03:25:05;;;;;;;6.37;4.13;;;6.30;99.90;6.10;100392.00;;;;4891106;28;95241;-64
2023/03/19 03:27:32;;;;;;;6.30;4.40;;;6.30;99.90;6.10;100380.00;;;;4894578;28;101987;-64
2023/03/19 03:29:58;;;;;;;6.33;4.70;;;6.20;99.90;6.00;100376.00;;;;4894918;28;88506;-64
2023/03/19 03:32:25;;;;;;;5.73;4.30;;;6.20;99.90;5.90;100380.00;;;;4895722;28;88097;-64
2023/03/19 03:34:50;;;;;;;6.70;3.43;;;6.00;99.90;5.90;100381.00;;;;4896884;28;88933;-64
2023/03/19 03:37:16;;;;;;;7.03;4.90;;;6.50;99.90;5.90;100379.00;;;;4895534;28;109167;-64
2023/03/19 03:39:42;;;;;;;7.80;5.13;;;6.00;99.90;5.80;100379.00;;;;4897392;28;88896;-64
2023/03/19 03:42:08;;;;;;;7.13;4.67;;;6.00;99.90;5.80;100381.00;;;;4890681;28;116547;-64
2023/03/19 03:44:35;;;;;;;8.07;5.40;;;6.00;99.90;5.80;100368.00;;;;4893277;28;88403;-64
2023/03/19 03:47:00;;;;;;;6.70;4.53;;;5.90;99.90;5.70;100368.00;;;;4895798;28;87969;-64
2023/03/19 03:49:26;;;;;;;6.93;5.70;;;6.30;99.90;5.70;100374.00;;;;4895939;28;88766;-64
2023/03/19 03:51:52;;;;;;;5.57;4.37;;;6.50;99.90;5.70;100375.00;;;;4895302;28;116753;-64
2023/03/19 03:54:17;;;;;;;8.87;4.93;;;5.80;99.90;5.70;100375.00;;;;4895915;28;107973;-64
2023/03/19 03:56:43;;;;;;;6.10;4.43;;;5.80;99.90;5.70;100382.00;;;;4896735;28;109021;-64
2023/03/19 03:59:09;;;;;;;8.70;5.73;;;5.80;99.90;5.60;100380.00;;;;4893541;28;117511;-65
2023/03/19 04:01:35;;;;;;;10.37;6.33;;;5.80;99.90;5.60;100391.00;;;;4892914;28;116370;-64
2023/03/19 04:04:00;;;;;;;9.03;5.47;;;5.80;99.90;5.60;100386.00;;;;4894699;28;110720;-64
2023/03/19 04:06:27;;;;;;;6.00;4.43;;;5.80;99.90;5.60;100387.00;;;;4895026;28;88087;-64
2023/03/19 04:08:53;;;;;;;7.47;5.20;;;5.80;99.90;5.60;100384.00;;;;4893871;28;88925;-64
2023/03/19 04:11:20;;;;;;;8.43;5.20;;;5.70;99.90;5.60;100385.00;;;;4895596;28;106111;-65
2023/03/19 04:13:45;;;;;;;6.20;4.20;;;5.70;99.90;5.60;100386.00;;;;4894832;28;87917;-65
2023/03/19 04:16:12;;;;;;;6.87;4.90;;;5.70;99.90;5.60;100382.00;;;;4896829;28;107980;-65
2023/03/19 04:18:38;;;;;;;5.63;4.37;;;5.70;99.90;5.60;100384.00;;;;4894494;28;89149;-65
2023/03/19 04:21:05;;;;;;;6.53;5.07;;;5.70;99.90;5.60;100374.00;;;;4894837;28;103852;-64
2023/03/19 04:23:31;;;;;;;7.20;5.90;;;5.60;99.90;5.60;100374.00;;;;4894471;28;98979;-64
2023/03/19 04:26:00;;;;;;;6.93;4.60;;;5.70;99.90;5.60;100372.00;;;;4895570;28;87883;-64
2023/03/19 04:28:26;;;;;;;9.10;6.37;;;5.70;99.90;5.60;100379.00;;;;4896545;28;88808;-64
2023/03/19 04:30:52;;;;;;;7.17;5.53;;;5.70;99.90;5.60;100362.00;;;;4894727;28;87641;-63
2023/03/19 04:33:18;;;;;;;12.33;6.30;;;5.70;99.90;5.60;100361.00;;;;4894186;28;109236;-64
2023/03/19 04:35:43;;;;;;;12.33;5.30;;;5.70;99.90;5.60;100362.00;;;;4897343;28;88642;-64
2023/03/19 04:38:09;;;;;;;15.33;5.87;;;5.70;99.90;5.60;100365.00;;;;4895065;28;116324;-64
2023/03/19 04:40:35;;;;;;;8.37;5.37;;;5.70;99.90;5.60;100366.00;;;;4894927;28;116794;-65
2023/03/19 04:43:01;;;;;;;6.80;5.60;;;6.10;99.90;5.60;100370.00;;;;4891611;28;87801;-64
2023/03/19 04:45:27;;;;;;;7.80;5.33;;;5.70;99.90;5.60;100379.00;;;;4894492;28;87783;-65
2023/03/19 04:47:52;;;;;;;6.90;5.40;;;5.70;99.90;5.60;100372.00;;;;4896340;28;94317;-64
2023/03/19 04:50:18;;;;;;;6.37;4.90;;;5.80;99.90;5.70;100388.00;;;;4894454;28;90191;-64
2023/03/19 04:52:44;;;;;;;6.03;4.60;;;5.80;99.90;5.60;100373.00;;;;4896513;28;87898;-65
2023/03/19 04:55:10;;;;;;;5.50;4.00;;;5.80;99.90;5.60;100375.00;;;;4895324;28;106972;-65
2023/03/19 04:57:36;;;;;;;6.83;4.40;;;5.80;99.90;5.60;100371.00;;;;4888540;28;118774;-64
2023/03/19 05:00:02;;;;;;;4.50;4.03;;;5.70;99.90;5.60;100369.00;;;;4893962;28;117889;-64
2023/03/19 05:02:27;;;;;;;6.93;4.90;;;5.70;99.90;5.60;100365.00;;;;4895695;28;94042;-65
2023/03/19 05:04:53;;;;;;;6.37;4.40;;;5.70;99.90;5.50;100373.00;;;;4894550;28;108373;-65
2023/03/19 05:07:19;;;;;;;7.87;4.80;;;5.70;99.90;5.50;100371.00;;;;4896560;28;88134;-65
2023/03/19 05:09:46;;;;;;;6.03;5.37;;;5.60;99.90;5.50;100374.00;;;;4892001;28;87884;-65
2023/03/19 05:12:12;;;;;;;7.03;4.33;;;6.20;99.90;5.50;100369.00;;;;4892788;28;88874;-64
2023/03/19 05:14:38;;;;;;;6.97;4.83;;;5.60;99.90;5.50;100356.00;;;;4892299;28;88122;-65
2023/03/19 05:17:04;;;;;;;7.20;4.73;;;5.60;99.90;5.50;100365.00;;;;4891162;28;104559;-65
2023/03/19 05:19:30;;;;;;;10.10;5.63;;;5.60;99.90;5.50;100379.00;;;;4894867;28;88019;-64
2023/03/19 05:21:56;;;;;;;5.40;4.50;;;5.60;99.90;5.50;100361.00;;;;4895763;28;87695;-64
2023/03/19 05:24:23;;;;;;;5.30;4.27;;;5.60;99.90;5.50;100357.00;;;;4892658;28;95777;-64
2023/03/19 05:26:49;;;;;;;7.73;4.97;;;5.60;99.90;5.50;100376.00;;;;4893993;28;108925;-64
2023/03/19 05:29:15;;;;;;;5.27;4.27;;;5.70;99.90;5.50;100376.00;;;;4897746;28;87160;-63
2023/03/19 05:31:41;;;;;;;6.07;4.20;;;5.60;99.90;5.60;100376.00;;;;4887141;28;87955;-64
2023/03/19 05:34:07;;;;;;;7.33;5.17;;;5.70;99.90;5.60;100379.00;;;;4894566;28;88022;-64
2023/03/19 05:36:33;;;;;;;8.07;4.83;;;5.70;99.90;5.60;100373.00;;;;4892620;28;89781;-64
2023/03/19 05:38:59;;;;;;;5.10;4.33;;;6.30;99.90;5.60;100368.00;;;;4894724;28;88836;-64
2023/03/19 05:41:25;;;;;;;8.90;5.20;;;5.80;99.90;5.70;100369.00;;;;4892850;28;87767;-64
2023/03/19 05:43:51;;;;;;;10.20;5.63;;;5.80;99.90;5.70;100373.00;;;;4891174;28;88255;-65
2023/03/19 05:46:17;;;;;;;9.40;5.40;;;5.90;99.90;5.70;100379.00;;;;4893081;28;88677;-65
2023/03/19 05:48:43;;;;;;;12.37;7.80;;;5.80;99.90;5.70;100378.00;;;;4890461;28;118395;-65
2023/03/19 05:51:08;;;;;;;14.27;8.40;;;5.90;99.90;5.80;100392.00;;;;4890520;28;87814;-64
2023/03/19 05:53:34;;;;;;;8.53;5.63;;;5.80;99.90;5.80;100392.00;;;;4889760;28;108825;-64
2023/03/19 05:56:00;;;;;;;9.33;6.17;;;5.90;99.90;5.80;100399.00;;;;4889558;28;117798;-64
2023/03/19 05:58:27;;;;;;;13.57;5.70;;;5.90;99.90;5.80;100404.00;;;;4892479;28;115912;-64
2023/03/19 06:00:55;;;;;;;6.83;5.27;;;5.90;99.90;5.80;100398.00;;;;4894417;28;89040;-66
2023/03/19 06:03:21;;;;;;;8.43;5.10;;;6.40;99.90;5.80;100406.00;;;;4893685;28;87940;-64
2023/03/19 06:05:51;;;;;;;8.37;5.03;;;6.00;99.90;5.80;100409.00;;;;4893832;28;87847;-64
2023/03/19 06:08:17;;;;;;;6.43;4.37;;;6.00;99.90;5.80;100414.00;;;;4893525;28;87827;-64
2023/03/19 06:10:44;;;;;;;4.73;3.23;;;6.00;99.90;5.90;100415.00;;;;4895459;28;88409;-65
2023/03/19 06:13:10;;;;;;;6.47;4.03;;;6.00;99.90;5.90;100415.00;;;;4890181;28;90034;-64
2023/03/19 06:15:36;;;;;;;6.57;4.30;;;6.00;99.90;5.90;100417.00;;;;4894399;28;88306;-64
2023/03/19 06:18:02;;;;;;;10.60;5.57;;;6.00;99.90;5.90;100419.00;;;;4892559;28;116476;-64
2023/03/19 06:20:27;;;;;;;6.63;4.43;;;6.10;99.90;6.00;100409.00;;;;4893985;28;104469;-65
2023/03/19 06:22:53;;;;;;;6.60;4.23;;;6.10;99.90;6.00;100415.00;;;;4892022;28;108391;-65
2023/03/19 06:25:19;;;;;;;8.87;4.13;;;6.10;99.90;6.10;100413.00;;;;4893151;28;89816;-64
2023/03/19 06:27:45;;;;;;;6.03;5.07;;;6.10;99.90;6.10;100408.00;;;;4888558;28;89937;-65
2023/03/19 06:30:11;;;;;;;11.60;5.30;;;6.60;99.90;6.20;100409.00;;;;4891899;28;111113;-64
2023/03/19 06:32:37;;;;;;;7.10;5.80;;;6.30;99.90;6.30;100410.00;;;;4891095;28;88441;-64
2023/03/19 06:35:03;;;;;;;8.80;5.73;;;6.40;99.90;6.30;100405.00;;;;4891627;28;92502;-64
2023/03/19 06:37:29;;;;;;;9.87;5.90;;;6.40;99.90;6.40;100406.00;;;;4893080;28;88591;-65
2023/03/19 06:39:55;;;;;;;8.30;4.83;;;6.50;99.90;6.50;100409.00;;;;4894153;28;88132;-64
2023/03/19 06:42:21;;;;;;;8.90;4.93;;;6.60;99.90;6.70;100411.00;;;;4892722;28;88312;-64
2023/03/19 06:44:47;;;;;;;5.83;4.80;;;6.70;99.90;6.80;100418.00;;;;4893575;28;108571;-64
2023/03/19 06:47:13;;;;;;;8.23;5.07;;;7.10;99.90;6.90;100418.00;;;;4892001;28;109977;-64
2023/03/19 06:49:39;;;;;;;8.07;5.40;;;7.00;99.90;7.10;100417.00;;;;4893444;28;88817;-64
2023/03/19 06:52:05;;;;;;;8.03;4.47;;;7.60;99.90;7.10;100422.00;;;;4893855;28;87931;-64
2023/03/19 06:54:31;;;;;;;7.10;3.87;;;7.20;99.90;7.20;100426.00;;;;4892007;28;90191;-64
2023/03/19 06:56:58;;;;;;;7.17;4.50;;;7.40;99.90;7.40;100433.00;;;;4890907;28;96604;-64
2023/03/19 06:59:24;;;;;;;9.93;4.67;;;7.70;99.90;7.50;100432.00;;;;4893057;28;87973;-65
2023/03/19 07:01:53;;;;;;;8.43;5.30;;;7.60;99.90;7.70;100430.00;;;;4895000;28;87932;-65
2023/03/19 07:04:19;;;;;;;10.40;5.43;;;7.70;99.90;8.00;100434.00;;;;4890995;28;116549;-64
2023/03/19 07:06:45;;;;;;;9.13;6.43;;;8.00;99.90;8.30;100432.00;;;;4893846;28;88458;-65
2023/03/19 07:09:11;;;;;;;8.57;6.60;;;8.30;99.90;8.50;100434.00;;;;4891264;28;87917;-64
2023/03/19 07:11:36;;;;;;;8.70;6.30;;;8.50;99.90;8.90;100447.00;;;;4895258;28;88409;-66
2023/03/19 07:14:03;;;;;;;6.20;5.53;;;8.80;99.90;9.30;100434.00;;;;4890261;28;118350;-66
2023/03/19 07:16:29;;;;;;;8.87;5.20;;;9.20;99.90;9.70;100445.00;;;;4893836;28;88762;-64
2023/03/19 07:18:55;;;;;;;8.93;5.13;;;9.60;99.90;10.20;100446.00;;;;4892515;28;88036;-63
2023/03/19 07:21:21;;;;;;;7.00;4.70;;;10.10;99.90;10.50;100439.00;;;;4890907;28;88042;-63
2023/03/19 07:23:49;;;;;;;7.30;4.53;;;10.40;99.90;10.70;100458.00;;;;4893435;28;97946;-63
2023/03/19 07:26:15;;;;;;;7.00;4.80;;;10.70;99.90;10.90;100448.00;;;;4894372;28;88333;-65
2023/03/19 07:28:41;;;;;;;3.20;2.90;;;10.80;99.90;11.30;100450.00;;;;4892685;28;88216;-65
2023/03/19 07:31:07;;;;;;;6.23;4.43;;;11.10;99.90;11.60;100460.00;;;;4892584;28;109727;-64
2023/03/19 07:33:32;;;;;;;10.63;4.30;;;11.50;99.90;11.90;100451.00;;;;4892096;28;110636;-64
2023/03/19 07:35:58;;;;;;;6.87;5.23;;;11.80;99.90;12.10;100458.00;;;;4893436;28;117794;-64
2023/03/19 07:38:24;;;;;;;13.57;5.17;;;12.10;99.90;12.40;100476.00;;;;4892030;28;110560;-64
2023/03/19 07:40:50;;;;;;;9.40;4.50;;;12.30;99.90;12.60;100480.00;;;;4894070;28;88227;-64
2023/03/19 07:43:16;;;;;;;7.27;4.60;;;12.50;99.90;12.80;100483.00;;;;4891868;28;89050;-64
2023/03/19 07:45:41;;;;;;;7.23;4.53;;;12.70;99.60;13.10;100475.00;;;;4892736;28;97566;-66
2023/03/19 07:48:07;;;;;;;6.17;4.60;;;13.00;98.60;13.30;100473.00;;;;4888547;28;111284;-64
2023/03/19 07:50:33;;;;;;;8.37;5.00;;;13.20;97.70;13.40;100472.00;;;;4890461;28;109246;-65
2023/03/19 07:52:59;;;;;;;7.73;4.73;;;13.40;96.70;13.60;100475.00;;;;4892091;28;92357;-64
2023/03/19 07:55:25;;;;;;;8.80;5.00;;;13.60;96.00;13.70;100476.00;;;;4892235;28;113208;-64
2023/03/19 07:57:50;;;;;;;6.50;5.10;;;13.70;94.80;13.80;100478.00;;;;4892470;28;90476;-64
2023/03/19 08:00:17;;;;;;;11.13;5.05;;;13.80;93.70;14.00;100476.00;;;;4893501;28;89336;-64
2023/03/19 08:02:42;;;;;;;6.43;3.83;;;13.90;92.80;14.20;100479.00;;;;4892760;28;90193;-64
2023/03/19 08:05:09;;;;;;;9.50;4.63;;;14.10;91.40;14.40;100485.00;;;;4893817;28;89877;-64
2023/03/19 08:07:35;;;;;;;5.15;2.70;;;14.30;86.10;14.50;100487.00;;;;4893998;28;88007;-65
2023/03/19 08:10:04;;;;;;;7.50;3.83;;;14.40;82.60;14.60;100483.00;;;;4017887;28;10000454;-64
2023/03/19 08:12:38;;;;;;;4.25;3.35;;;14.60;80.10;14.60;100485.00;;;;4891118;28;103917;-65
2023/03/19 08:15:05;;;;;;;8.52;3.95;;;14.60;74.30;14.60;100482.00;;;;4873867;28;87811;-64
2023/03/19 08:17:36;;;;;;;7.63;4.35;;;14.60;72.00;14.50;100484.00;;;;4890466;28;91164;-64
2023/03/19 08:20:07;;;;;;;5.25;3.88;;;14.50;70.70;14.50;100479.00;;;;4893054;28;87890;-65
2023/03/19 08:22:36;;;;;;;7.50;3.95;;;14.50;70.10;14.50;100473.00;;;;4575304;28;10001156;-64
2023/03/19 08:25:03;;;;;;;7.32;4.63;;;14.50;66.80;14.60;100480.00;;;;4380705;28;10000818;-64
2023/03/19 08:27:34;;;;;;;5.22;3.60;;;14.50;67.20;14.60;100476.00;;;;4892073;28;88925;-65
2023/03/19 08:30:02;;;;;;;6.60;3.55;;;14.60;65.10;14.70;100469.00;;;;4889668;28;88456;-64
2023/03/19 08:32:28;;;;;;;7.32;4.78;;;14.60;65.10;14.80;100466.00;;;;4889746;28;87964;-64
2023/03/19 08:34:54;;;;;;;10.35;5.28;;;14.80;63.00;14.90;100470.00;;;;4890278;28;100628;-65
2023/03/19 08:37:20;;;;;;;6.35;3.92;;;14.90;63.00;15.00;100472.00;;;;4890790;28;87921;-65
2023/03/19 08:39:46;;;;;;;4.65;3.65;;;14.90;62.00;15.10;100463.00;;;;4016497;28;10000652;-63
2023/03/19 08:42:12;;;;;;;7.68;3.97;;;15.00;60.60;15.10;100472.00;;;;4888539;28;88066;-64
2023/03/19 08:44:37;;;;;;;5.53;3.50;;;15.00;59.70;15.10;100470.00;;;;4891861;28;101678;-64
2023/03/19 08:47:03;;;;;;;7.50;4.47;;;15.10;60.40;15.20;100465.00;;;;4888239;28;119915;-64
2023/03/19 08:49:29;;;;;;;3.70;3.10;;;15.10;60.30;15.30;100473.00;;;;4887172;28;117052;-64
2023/03/19 08:51:54;;;;;;;7.68;4.90;;;15.20;59.60;15.50;100470.00;;;;4871518;28;108343;-64
2023/03/19 08:54:20;;;;;;;5.05;3.42;;;15.40;59.40;15.60;100465.00;;;;4890609;28;87949;-64
2023/03/19 08:56:46;;;;;;;4.35;3.63;;;15.50;59.10;15.80;100472.00;;;;4890563;28;117043;-64
2023/03/19 08:59:12;;;;;;;4.93;3.28;;;15.70;59.10;16.00;100470.00;;;;4889502;28;116348;-64
2023/03/19 09:01:37;;;;;;;4.15;2.88;;;15.80;59.00;16.20;100474.00;;;;4892506;28;88060;-63
2023/03/19 09:04:03;;;;;;;5.85;3.33;;;16.00;59.60;16.40;100476.00;;;;4889262;28;89906;-64
2023/03/19 09:06:30;;;;;;;6.65;2.95;;;16.20;58.10;16.60;100476.00;;;;4890849;28;87964;-64
2023/03/19 09:08:55;;;;;;;5.75;3.28;;;16.40;57.10;16.70;100468.00;;;;4889886;28;88717;-63
2023/03/19 09:11:22;;;;;;;6.10;3.47;;;16.60;56.70;16.80;100476.00;;;;4890800;28;109650;-64
2023/03/19 09:13:48;;;;;;;6.03;3.78;;;16.60;55.80;16.80;100481.00;;;;4891496;28;87990;-64
2023/03/19 09:16:14;;;;;;;6.65;3.58;;;16.70;55.00;16.90;100482.00;;;;4888851;28;120087;-64
2023/03/19 09:18:40;;;;;;;8.40;3.50;;;16.70;56.00;17.10;100480.00;;;;4889184;28;89723;-64
2023/03/19 09:21:06;;;;;;;5.05;2.75;;;16.90;56.60;17.30;100486.00;;;;4890313;28;88050;-64
2023/03/19 09:23:32;;;;;;;4.88;3.50;;;17.10;56.70;17.50;100486.00;;;;4889744;28;108353;-64
2023/03/19 09:25:58;;;;;;;5.35;3.05;;;17.20;55.60;17.60;100492.00;;;;4891043;28;88117;-64
2023/03/19 09:28:24;;;;;;;3.15;2.47;;;17.40;55.70;17.80;100497.00;;;;4887898;28;116481;-64
2023/03/19 09:30:50;;;;;;;5.55;3.25;;;17.60;55.40;17.90;100498.00;;;;4892676;28;88118;-64
2023/03/19 09:33:18;;;;;;;5.63;3.38;;;17.70;54.80;18.00;100495.00;;;;4896062;28;88608;-63
2023/03/19 09:35:52;;;;;;;7.80;3.63;;;17.80;53.60;18.10;100492.00;;;;4894952;28;88929;-63
2023/03/19 09:38:20;;;;;;;3.25;2.60;;;17.90;53.80;18.20;100499.00;;;;4893242;28;88409;-63
2023/03/19 09:40:54;;;;;;;4.60;2.97;;;18.00;54.10;18.30;100500.00;;;;4892137;28;88879;-65
2023/03/19 09:43:41;;;;;;;8.20;3.85;;;18.10;53.10;18.20;100495.00;;;;4890818;28;87979;-63
2023/03/19 09:46:20;;;;;;;4.93;2.97;;;18.10;51.90;18.20;100502.00;;;;4893053;28;88107;-64
2023/03/19 09:48:57;;;;;;;3.28;2.78;;;18.10;51.80;18.20;100494.00;;;;4888705;28;88002;-64
2023/03/19 09:51:48;;;;;;;3.90;2.80;;;18.00;51.80;18.30;100501.00;;;;4897684;28;101064;-64
2023/03/19 09:54:32;;;;;;;5.07;3.25;;;18.10;52.10;18.40;100484.00;;;;4886565;28;101806;-64
2023/03/19 09:56:58;;;;;;;8.57;3.53;;;18.20;51.90;18.40;100496.00;;;;4891849;28;88023;-66
2023/03/19 09:59:26;;;;;;;3.88;3.03;;;18.20;51.10;18.50;100498.00;;;;4892798;28;87452;-64
2023/03/19 10:01:59;;;;;;;7.13;3.08;;;18.30;51.20;18.40;100488.00;;;;4893163;28;87715;-64
2023/03/19 10:04:59;;;;;;;2.45;2.25;;;18.20;49.40;18.20;100493.00;;;;4892700;28;87802;-65
2023/03/19 10:08:14;;;;;;;8.57;2.88;;;18.10;49.40;18.30;100500.00;;;;4882326;28;92814;-64
2023/03/19 10:10:58;;;;;;;4.50;3.08;;;18.10;50.30;18.40;100489.00;;;;4908626;28;109204;-65
2023/03/19 10:14:00;;;;;;;5.78;3.65;;;18.20;49.30;18.60;100487.00;;;;4892524;28;87921;-65
2023/03/19 10:16:27;;;;;;;3.95;2.88;;;18.40;50.30;19.00;100492.00;;;;4891454;28;88774;-64
2023/03/19 10:18:59;;;;;;;5.53;2.97;;;18.60;50.70;19.30;100491.00;;;;4906464;28;91228;-66
2023/03/19 10:21:34;;;;;;;4.15;2.83;;;18.90;50.30;19.50;100488.00;;;;4894956;28;87956;-66
2023/03/19 10:24:23;;;;;;;6.90;2.92;;;19.20;49.60;19.70;100495.00;;;;4887401;28;88246;-66
2023/03/19 10:26:58;;;;;;;4.15;3.33;;;19.40;50.00;20.00;100495.00;;;;4908177;28;90773;-66
2023/03/19 10:29:24;;;;;;;3.35;3.00;;;19.70;50.30;20.30;100500.00;;;;4891723;28;88144;-65
2023/03/19 10:32:19;;;;;;;6.53;2.00;;;20.00;50.10;20.50;100494.00;;;;4889656;28;88943;-65
2023/03/19 10:34:54;;;;;;;3.83;2.50;;;20.20;48.80;20.60;100500.00;;;;4894198;28;88846;-65
2023/03/19 10:37:29;;;;;;;7.20;3.13;;;20.30;48.00;20.40;100492.00;;;;4884759;28;88229;-65
2023/03/19 10:39:59;;;;;;;3.45;2.30;;;20.20;46.30;20.30;100495.00;;;;4891734;28;87847;-65
2023/03/19 10:42:37;;;;;;;5.07;3.15;;;20.10;47.50;20.30;100490.00;;;;4891258;28;116724;-65
2023/03/19 10:45:30;;;;;;;4.50;2.95;;;20.10;48.20;20.40;100486.00;;;;4891847;28;87805;-65
2023/03/19 10:47:57;;;;;;;5.15;3.65;;;20.10;47.80;20.30;100496.00;;;;4892538;28;102765;-65
2023/03/19 10:50:46;;;;;;;6.38;2.72;;;20.10;48.00;20.40;100501.00;;;;4890959;28;87783;-65
2023/03/19 10:53:12;;;;;;;5.32;2.63;;;20.10;48.50;20.50;100491.00;;;;4891857;28;87426;-65
2023/03/19 10:55:46;;;;;;;5.45;2.55;;;20.20;48.70;20.60;100487.00;;;;4890522;28;112244;-65
2023/03/19 10:58:18;;;;;;;5.88;2.53;;;20.30;47.80;20.60;100501.00;;;;4893596;28;87807;-65